createdAt,value
2018-05-25T00:00:31.771Z,13.47
2018-05-25T00:02:57.952Z,13.00
2018-05-25T00:05:24.898Z,12.07
2018-05-25T00:07:51.835Z,11.50
2018-05-25T00:10:18.799Z,11.37
2018-05-25T00:12:45.037Z,17.93
2018-05-25T00:15:11.234Z,10.33
2018-05-25T00:17:38.145Z,12.13
2018-05-25T00:20:04.387Z,11.03
2018-05-25T00:22:30.581Z,12.40
2018-05-25T00:24:56.868Z,11.70
2018-05-25T00:27:23.815Z,15.13
2018-05-25T00:29:50.802Z,14.90
2018-05-25T00:32:17.024Z,13.90
2018-05-25T00:34:43.200Z,16.10
2018-05-25T00:37:09.416Z,19.53
2018-05-25T00:39:35.546Z,12.10
2018-05-25T00:42:01.770Z,12.63
2018-05-25T00:44:27.897Z,10.57
2018-05-25T00:46:54.126Z,11.50
2018-05-25T00:49:20.349Z,13.17
2018-05-25T00:51:46.515Z,11.20
2018-05-25T00:54:13.490Z,13.00
2018-05-25T00:56:39.722Z,13.03
2018-05-25T00:59:05.930Z,12.40
2018-05-25T01:01:32.137Z,11.57
2018-05-25T01:03:59.048Z,11.63
2018-05-25T01:06:25.281Z,15.30
2018-05-25T01:08:51.477Z,13.37
2018-05-25T01:11:17.679Z,20.27
2018-05-25T01:13:43.930Z,15.13
2018-05-25T01:16:10.153Z,14.37
2018-05-25T01:18:36.325Z,13.73
2018-05-25T01:21:02.529Z,14.00
2018-05-25T01:23:28.736Z,20.10
2018-05-25T01:25:54.927Z,17.93
2018-05-25T01:28:21.108Z,14.20
2018-05-25T01:30:47.252Z,21.10
2018-05-25T01:33:13.468Z,16.30
2018-05-25T01:35:39.698Z,19.30
2018-05-25T01:38:05.869Z,14.13
2018-05-25T01:40:32.785Z,13.10
2018-05-25T01:42:58.948Z,18.10
2018-05-25T01:45:25.901Z,16.40
2018-05-25T01:47:52.117Z,19.77
2018-05-25T01:50:19.092Z,15.57
2018-05-25T01:52:45.261Z,17.07
2018-05-25T01:55:11.430Z,28.50
2018-05-25T01:57:37.602Z,15.43
2018-05-25T02:00:03.802Z,24.50
2018-05-25T02:02:30.028Z,16.43
2018-05-25T02:04:56.190Z,17.80
2018-05-25T02:07:22.397Z,19.60
2018-05-25T02:09:48.647Z,16.47
2018-05-25T02:12:14.827Z,17.63
2018-05-25T02:14:41.041Z,20.63
2018-05-25T02:17:08.032Z,23.87
2018-05-25T02:19:34.214Z,15.53
2018-05-25T02:22:01.218Z,21.83
2018-05-25T02:24:27.417Z,17.40
2018-05-25T02:26:53.626Z,16.80
2018-05-25T02:29:20.526Z,22.40
2018-05-25T02:31:46.717Z,19.73
2018-05-25T02:34:12.918Z,18.33
2018-05-25T02:36:39.855Z,16.70
2018-05-25T02:39:06.795Z,17.80
2018-05-25T02:41:33.741Z,22.00
2018-05-25T02:44:00.723Z,17.77
2018-05-25T02:46:26.952Z,21.50
2018-05-25T02:48:53.146Z,23.00
2018-05-25T02:51:20.118Z,20.83
2018-05-25T02:53:46.287Z,14.93
2018-05-25T02:56:12.516Z,18.37
2018-05-25T02:58:38.726Z,17.90
2018-05-25T03:01:04.877Z,17.23
2018-05-25T03:03:31.118Z,18.03
2018-05-25T03:05:57.277Z,18.20
2018-05-25T03:08:23.447Z,17.17
2018-05-25T03:10:49.678Z,17.53
2018-05-25T03:13:15.926Z,21.80
2018-05-25T03:15:42.110Z,24.63
2018-05-25T03:18:08.273Z,15.33
2018-05-25T03:20:34.425Z,17.13
2018-05-25T03:23:01.324Z,16.13
2018-05-25T03:25:27.601Z,23.60
2018-05-25T03:27:54.550Z,14.53
2018-05-25T03:30:21.481Z,16.40
2018-05-25T03:32:48.424Z,18.20
2018-05-25T03:35:14.598Z,19.40
2018-05-25T03:37:40.806Z,18.43
2018-05-25T03:40:06.987Z,19.00
2018-05-25T03:42:33.159Z,20.60
2018-05-25T03:44:59.317Z,18.83
2018-05-25T03:47:25.541Z,20.37
2018-05-25T03:49:51.789Z,18.67
2018-05-25T03:52:17.981Z,19.90
2018-05-25T03:54:44.140Z,26.20
2018-05-25T03:57:10.298Z,17.57
2018-05-25T03:59:48.711Z,18.60
2018-05-25T04:02:14.893Z,21.70
2018-05-25T04:04:41.934Z,17.67
2018-05-25T04:07:08.170Z,23.63
2018-05-25T04:09:34.322Z,19.90
2018-05-25T04:12:00.548Z,19.97
2018-05-25T04:14:26.746Z,36.70
2018-05-25T04:16:52.898Z,28.20
2018-05-25T04:19:19.074Z,17.73
2018-05-25T04:21:45.280Z,16.30
2018-05-25T04:24:12.160Z,27.90
2018-05-25T04:26:38.415Z,24.00
2018-05-25T04:29:04.555Z,20.63
2018-05-25T04:31:30.717Z,25.30
2018-05-25T04:33:57.657Z,19.83
2018-05-25T04:36:24.643Z,20.03
2018-05-25T04:38:50.830Z,16.57
2018-05-25T04:41:17.801Z,20.23
2018-05-25T04:43:43.959Z,19.70
2018-05-25T04:46:10.155Z,18.73
2018-05-25T04:48:36.385Z,19.37
2018-05-25T04:51:02.564Z,20.20
2018-05-25T04:53:28.696Z,21.60
2018-05-25T04:55:54.910Z,20.20
2018-05-25T04:58:21.087Z,18.17
2018-05-25T05:00:48.069Z,19.63
2018-05-25T05:03:14.281Z,27.97
2018-05-25T05:05:40.509Z,21.93
2018-05-25T05:08:06.760Z,19.80
2018-05-25T05:10:32.958Z,19.40
2018-05-25T05:12:59.179Z,22.63
2018-05-25T05:15:25.314Z,20.27
2018-05-25T05:17:51.498Z,17.30
2018-05-25T05:20:17.671Z,20.93
2018-05-25T05:22:43.836Z,18.57
2018-05-25T05:25:10.024Z,19.47
2018-05-25T05:27:36.199Z,25.90
2018-05-25T05:30:02.460Z,20.67
2018-05-25T05:32:28.631Z,20.27
2018-05-25T05:34:54.864Z,19.93
2018-05-25T05:37:21.011Z,18.70
2018-05-25T05:39:47.208Z,17.40
2018-05-25T05:42:13.405Z,22.27
2018-05-25T05:44:39.608Z,20.33
2018-05-25T05:47:05.870Z,16.53
2018-05-25T05:49:32.039Z,17.30
2018-05-25T05:51:58.275Z,15.87
2018-05-25T05:54:25.221Z,23.90
2018-05-25T05:56:51.402Z,19.23
2018-05-25T05:59:17.651Z,16.87
2018-05-25T06:01:43.813Z,15.80
2018-05-25T06:04:10.027Z,18.50
2018-05-25T06:06:36.179Z,15.50
2018-05-25T06:09:03.164Z,15.43
2018-05-25T06:11:29.374Z,14.20
2018-05-25T06:13:55.537Z,14.60
2018-05-25T06:16:21.785Z,17.83
2018-05-25T06:18:47.988Z,20.97
2018-05-25T06:21:14.202Z,16.30
2018-05-25T06:23:40.387Z,20.03
2018-05-25T06:26:06.533Z,14.13
2018-05-25T06:28:33.450Z,23.83
2018-05-25T06:30:59.670Z,16.70
2018-05-25T06:33:25.896Z,15.40
2018-05-25T06:35:52.099Z,19.17
2018-05-25T06:38:18.231Z,29.67
2018-05-25T06:40:44.451Z,19.27
2018-05-25T06:43:10.647Z,16.53
2018-05-25T06:45:36.758Z,17.03
2018-05-25T06:48:03.663Z,17.40
2018-05-25T06:50:29.841Z,17.53
2018-05-25T06:52:56.026Z,15.70
2018-05-25T06:55:22.217Z,16.40
2018-05-25T06:57:48.508Z,23.60
2018-05-25T07:00:14.619Z,23.50
2018-05-25T07:02:40.774Z,16.17
2018-05-25T07:05:07.748Z,16.90
2018-05-25T07:07:33.915Z,19.83
2018-05-25T07:10:00.124Z,17.53
2018-05-25T07:12:26.276Z,18.30
2018-05-25T07:14:52.490Z,16.73
2018-05-25T07:17:18.636Z,17.63
2018-05-25T07:19:44.866Z,18.30
2018-05-25T07:22:11.787Z,19.37
2018-05-25T07:24:37.981Z,15.00
2018-05-25T07:27:04.194Z,19.20
2018-05-25T07:29:30.433Z,16.80
2018-05-25T07:31:56.654Z,18.13
2018-05-25T07:34:22.857Z,15.67
2018-05-25T07:36:49.809Z,15.87
2018-05-25T07:39:16.793Z,16.70
2018-05-25T07:41:43.717Z,19.37
2018-05-25T07:44:09.905Z,13.07
2018-05-25T07:46:36.158Z,13.50
2018-05-25T07:49:03.033Z,14.23
2018-05-25T07:51:29.279Z,19.63
2018-05-25T07:53:55.457Z,18.03
2018-05-25T07:56:22.320Z,15.03
2018-05-25T07:58:48.542Z,17.13
2018-05-25T08:01:14.738Z,17.53
2018-05-25T08:03:40.951Z,17.77
2018-05-25T08:06:07.103Z,14.40
2018-05-25T08:08:34.065Z,21.17
2018-05-25T08:11:00.231Z,16.23
2018-05-25T08:13:26.434Z,18.30
2018-05-25T08:15:52.669Z,17.80
2018-05-25T08:18:18.937Z,16.20
2018-05-25T08:20:45.129Z,17.50
2018-05-25T08:23:11.342Z,13.53
2018-05-25T08:25:37.517Z,20.30
2018-05-25T08:28:03.749Z,15.83
2018-05-25T08:30:29.960Z,15.40
2018-05-25T08:32:56.209Z,16.90
2018-05-25T08:35:22.406Z,14.13
2018-05-25T08:37:48.616Z,14.10
2018-05-25T08:40:14.833Z,17.27
2018-05-25T08:42:40.978Z,17.00
2018-05-25T08:45:07.215Z,13.00
2018-05-25T08:47:33.405Z,21.30
2018-05-25T08:50:00.291Z,12.90
2018-05-25T08:52:26.470Z,13.07
2018-05-25T08:54:53.369Z,12.40
2018-05-25T08:57:19.481Z,12.43
2018-05-25T08:59:45.695Z,18.83
2018-05-25T09:02:11.889Z,11.33
2018-05-25T09:04:38.837Z,11.93
2018-05-25T09:07:05.832Z,13.43
2018-05-25T09:09:32.053Z,9.87
2018-05-25T09:11:58.249Z,10.20
2018-05-25T09:14:24.481Z,9.20
2018-05-25T09:16:50.721Z,7.67
2018-05-25T09:19:16.953Z,7.77
2018-05-25T09:21:43.183Z,9.07
2018-05-25T09:24:09.348Z,9.93
2018-05-25T09:26:35.610Z,10.90
2018-05-25T09:29:02.607Z,9.17
2018-05-25T09:31:28.855Z,8.97
2018-05-25T09:33:55.034Z,11.27
2018-05-25T09:36:21.251Z,9.63
2018-05-25T09:38:47.449Z,12.33
2018-05-25T09:41:13.645Z,9.70
2018-05-25T09:43:40.569Z,12.90
2018-05-25T09:46:06.768Z,8.30
2018-05-25T09:48:33.669Z,10.73
2018-05-25T09:50:59.865Z,11.13
2018-05-25T09:53:26.076Z,8.70
2018-05-25T09:55:53.022Z,9.27
2018-05-25T09:58:20.087Z,11.40
2018-05-25T10:00:46.317Z,9.30
2018-05-25T10:03:12.486Z,9.80
2018-05-25T10:05:38.705Z,13.13
2018-05-25T10:08:04.915Z,10.43
2018-05-25T10:10:31.128Z,11.80
2018-05-25T10:12:57.321Z,8.03
2018-05-25T10:15:24.230Z,8.70
2018-05-25T10:17:50.434Z,7.43
2018-05-25T10:20:17.376Z,8.30
2018-05-25T10:22:43.558Z,6.97
2018-05-25T10:25:09.736Z,12.73
2018-05-25T10:27:35.873Z,11.73
2018-05-25T10:30:02.092Z,9.33
2018-05-25T10:32:28.235Z,9.93
2018-05-25T10:34:54.465Z,9.67
2018-05-25T10:37:21.398Z,13.10
2018-05-25T10:39:47.570Z,28.13
2018-05-25T10:42:13.771Z,11.30
2018-05-25T10:44:39.940Z,10.80
2018-05-25T10:47:06.860Z,9.43
2018-05-25T10:49:33.799Z,9.07
2018-05-25T10:51:59.943Z,14.63
2018-05-25T10:54:26.111Z,10.33
2018-05-25T10:56:52.372Z,11.20
2018-05-25T10:59:18.538Z,10.20
2018-05-25T11:01:45.506Z,17.57
2018-05-25T11:04:11.710Z,17.63
2018-05-25T11:06:38.689Z,13.03
2018-05-25T11:09:04.953Z,11.13
2018-05-25T11:11:31.237Z,16.23
2018-05-25T11:13:57.422Z,11.57
2018-05-25T11:16:23.583Z,16.67
2018-05-25T11:18:49.726Z,10.10
2018-05-25T11:21:15.878Z,9.90
2018-05-25T11:23:42.109Z,14.43
2018-05-25T11:26:08.307Z,9.73
2018-05-25T11:28:34.442Z,10.73
2018-05-25T11:31:01.383Z,11.43
2018-05-25T11:33:28.377Z,691.50
2018-05-25T11:35:55.307Z,667.47
2018-05-25T11:38:22.253Z,643.53
2018-05-25T11:40:49.186Z,629.45
2018-05-25T11:43:16.165Z,608.60
2018-05-25T11:45:43.114Z,575.30
2018-05-25T11:48:10.074Z,603.40
2018-05-25T11:50:36.955Z,579.60
2018-05-25T11:53:03.902Z,587.60
2018-05-25T11:55:30.819Z,652.00
2018-05-25T11:57:57.743Z,662.00
2018-05-25T12:00:24.642Z,627.58
2018-05-25T12:02:51.567Z,633.58
2018-05-25T12:05:18.457Z,576.40
2018-05-25T12:07:45.368Z,593.28
2018-05-25T12:10:12.319Z,582.45
2018-05-25T12:12:39.235Z,583.90
2018-05-25T12:15:06.155Z,584.10
2018-05-25T12:17:33.098Z,603.90
2018-05-25T12:20:00.048Z,596.97
2018-05-25T12:22:26.980Z,614.92
2018-05-25T12:24:53.921Z,621.20
2018-05-25T12:27:20.857Z,607.30
2018-05-25T12:29:47.829Z,594.60
2018-05-25T12:32:14.829Z,598.37
2018-05-25T12:34:41.744Z,594.67
2018-05-25T12:37:08.671Z,639.15
2018-05-25T12:39:35.572Z,591.17
2018-05-25T12:42:02.496Z,570.10
2018-05-25T12:44:29.468Z,588.30
2018-05-25T12:46:56.383Z,591.80
2018-05-25T12:49:23.291Z,573.40
2018-05-25T12:51:50.217Z,592.50
2018-05-25T12:54:17.201Z,572.22
2018-05-25T12:56:44.196Z,552.85
2018-05-25T12:59:11.111Z,558.28
2018-05-25T13:01:38.056Z,619.45
2018-05-25T13:04:05.041Z,605.58
2018-05-25T13:06:32.035Z,590.90
2018-05-25T13:08:58.988Z,581.42
2018-05-25T13:11:25.908Z,681.00
2018-05-25T13:13:52.844Z,688.47
2018-05-25T13:16:19.787Z,661.80
2018-05-25T13:18:46.737Z,677.70
2018-05-25T13:21:13.693Z,680.55
2018-05-25T13:23:40.648Z,684.40
2018-05-25T13:26:07.617Z,666.05
2018-05-25T13:28:34.538Z,674.10
2018-05-25T13:31:01.461Z,686.30
2018-05-25T13:33:28.437Z,669.65
2018-05-25T13:35:55.386Z,682.45
2018-05-25T13:38:22.362Z,684.95
2018-05-25T13:40:49.332Z,641.45
2018-05-25T13:43:16.215Z,652.58
2018-05-25T13:45:43.174Z,693.03
2018-05-25T13:48:10.072Z,652.15
2018-05-25T13:50:37.044Z,611.20
2018-05-25T13:53:03.953Z,599.80
2018-05-25T13:55:30.869Z,695.12
2018-05-25T13:57:57.886Z,577.50
2018-05-25T14:00:24.842Z,627.50
2018-05-25T14:02:51.827Z,614.42
2018-05-25T14:05:18.712Z,630.28
2018-05-25T14:07:45.613Z,594.17
2018-05-25T14:10:12.576Z,582.05
2018-05-25T14:12:39.461Z,617.75
2018-05-25T14:15:06.402Z,612.60
2018-05-25T14:17:33.404Z,587.67
2018-05-25T14:20:00.316Z,570.83
2018-05-25T14:22:27.345Z,550.22
2018-05-25T14:24:54.243Z,569.55
2018-05-25T14:27:21.225Z,611.70
2018-05-25T14:29:48.180Z,579.17
2018-05-25T14:32:15.100Z,529.08
2018-05-25T14:34:42.041Z,539.42
2018-05-25T14:37:08.962Z,568.60
2018-05-25T14:39:35.863Z,580.95
2018-05-25T14:42:02.832Z,544.47
2018-05-25T14:44:29.810Z,518.53
2018-05-25T14:47:03.660Z,588.25
2018-05-25T14:49:30.567Z,609.92
2018-05-25T14:51:57.513Z,651.13
2018-05-25T14:54:24.549Z,652.88
